Time;durP1;ratioP1;P1;durP2;ratioP2;P2;SDS_P1;SDS_P2;PMS_P1;PMS_P2;Temp;Humidity;BMP_temperature;BMP_pressure;BME280_temperature;BME280_humidity;BME280_pressure;Samples;Min_cycle;Max_cycle;Signal;HPM_P1;HPM_P2
2023/06/20 00:00:48;;;;;;;5.03;4.53;;;19.90;99.90;;;;;;5046398;28;20955;-73
2023/06/20 00:03:15;;;;;;;6.00;4.60;;;19.90;99.90;;;;;;5047030;28;20523;-73
2023/06/20 00:05:41;;;;;;;6.20;5.60;;;19.90;99.90;;;;;;5046955;28;20463;-73
2023/06/20 00:08:08;;;;;;;5.10;4.60;;;19.90;99.90;;;;;;5047268;28;20481;-73
2023/06/20 00:10:36;;;;;;;5.13;4.60;;;19.90;99.90;;;;;;5047242;28;20483;-73
2023/06/20 00:13:03;;;;;;;4.80;4.40;;;20.00;99.90;;;;;;5047395;28;20453;-73
2023/06/20 00:15:31;;;;;;;4.63;4.23;;;20.00;99.90;;;;;;5046619;28;20463;-73
2023/06/20 00:18:00;;;;;;;5.43;4.50;;;20.00;99.90;;;;;;5047675;28;21229;-73
2023/06/20 00:20:27;;;;;;;5.23;4.80;;;20.10;99.90;;;;;;5047453;28;20967;-72
2023/06/20 00:22:53;;;;;;;5.37;4.87;;;20.20;99.90;;;;;;5046804;28;20562;-73
2023/06/20 00:25:20;;;;;;;4.77;4.37;;;20.30;99.90;;;;;;5046543;28;20456;-73
2023/06/20 00:27:48;;;;;;;4.67;4.27;;;20.30;99.90;;;;;;5046903;28;20468;-73
2023/06/20 00:30:15;;;;;;;6.93;5.70;;;20.40;99.90;;;;;;5049020;28;20467;-73
2023/06/20 00:32:42;;;;;;;4.93;4.40;;;20.40;99.90;;;;;;5066692;28;20470;-73
2023/06/20 00:35:09;;;;;;;4.60;4.20;;;20.50;99.90;;;;;;5066538;28;20454;-73
2023/06/20 00:37:38;;;;;;;4.73;4.33;;;20.50;99.90;;;;;;5067180;28;20479;-72
2023/06/20 00:40:07;;;;;;;5.10;4.60;;;20.50;99.90;;;;;;5067818;28;20483;-73
2023/06/20 00:42:34;;;;;;;5.50;5.00;;;20.50;99.90;;;;;;5066957;28;20459;-72
2023/06/20 00:45:02;;;;;;;6.30;5.70;;;20.50;99.90;;;;;;5065312;28;20462;-73
2023/06/20 00:47:29;;;;;;;6.40;5.00;;;20.40;99.90;;;;;;5067732;28;20474;-72
2023/06/20 00:49:57;;;;;;;5.87;5.10;;;20.30;99.90;;;;;;5067841;28;20482;-72
2023/06/20 00:52:25;;;;;;;7.67;6.03;;;20.20;99.90;;;;;;5066872;28;20459;-72
2023/06/20 00:54:52;;;;;;;9.03;6.43;;;20.10;99.90;;;;;;5068181;28;20463;-72
2023/06/20 00:57:20;;;;;;;7.80;4.77;;;20.00;99.90;;;;;;5068276;28;20551;-72
2023/06/20 00:59:49;;;;;;;5.57;5.07;;;19.90;99.90;;;;;;5066855;28;20470;-71
2023/06/20 01:02:20;;;;;;;7.23;4.83;;;19.80;99.90;;;;;;5065523;28;20506;-72
2023/06/20 01:04:48;;;;;;;5.70;5.20;;;19.70;99.90;;;;;;5065031;28;20482;-71
2023/06/20 01:07:24;;;;;;;5.80;5.30;;;19.60;99.90;;;;;;5049007;28;20560;-71
2023/06/20 01:10:00;;;;;;;5.97;5.23;;;19.50;99.90;;;;;;5046790;28;20478;-71
2023/06/20 01:12:33;;;;;;;5.17;4.70;;;19.40;99.90;;;;;;5050285;28;20761;-74
2023/06/20 01:15:09;;;;;;;5.40;4.90;;;19.40;99.90;;;;;;5046945;28;20920;-74
2023/06/20 01:17:44;;;;;;;6.03;4.57;;;19.30;99.90;;;;;;5052885;28;20462;-74
2023/06/20 01:20:16;;;;;;;5.77;5.10;;;19.30;99.90;;;;;;5053531;28;20459;-74
2023/06/20 01:22:57;;;;;;;5.27;4.67;;;19.20;99.90;;;;;;5053421;28;20550;-73
2023/06/20 01:25:31;;;;;;;6.03;4.50;;;19.20;99.90;;;;;;5052680;28;20513;-72
2023/06/20 01:28:06;;;;;;;4.20;3.80;;;19.20;99.90;;;;;;5053268;28;20505;-73
2023/06/20 01:30:40;;;;;;;5.27;4.30;;;19.10;99.90;;;;;;5053003;28;20455;-73
2023/06/20 01:33:09;;;;;;;5.07;4.40;;;19.10;99.90;;;;;;5053503;28;20450;-73
2023/06/20 01:35:37;;;;;;;5.23;4.40;;;19.10;99.90;;;;;;5052608;28;21024;-73
2023/06/20 01:38:09;;;;;;;5.63;4.23;;;19.10;99.90;;;;;;5053529;28;20475;-73
2023/06/20 01:40:37;;;;;;;4.00;3.57;;;19.00;99.90;;;;;;5053313;28;20459;-73
2023/06/20 01:43:05;;;;;;;4.90;4.40;;;19.00;99.90;;;;;;5053067;28;20482;-73
2023/06/20 01:45:39;;;;;;;6.67;4.17;;;19.00;99.90;;;;;;5052267;28;20463;-73
2023/06/20 01:48:07;;;;;;;4.40;4.00;;;19.00;99.90;;;;;;5053138;28;20475;-73
2023/06/20 01:50:35;;;;;;;4.20;3.80;;;18.90;99.90;;;;;;5052669;28;20835;-73
2023/06/20 01:53:03;;;;;;;4.40;4.00;;;18.90;99.90;;;;;;5053083;28;20897;-73
2023/06/20 01:55:33;;;;;;;5.30;3.90;;;18.80;99.90;;;;;;5053035;28;20455;-74
2023/06/20 01:58:01;;;;;;;4.40;4.00;;;18.80;99.90;;;;;;5053365;28;20455;-74
2023/06/20 02:00:31;;;;;;;4.53;4.10;;;18.80;99.90;;;;;;5052861;28;20490;-74
2023/06/20 02:03:00;;;;;;;4.07;3.73;;;18.70;99.90;;;;;;5052975;28;20511;-73
2023/06/20 02:05:31;;;;;;;5.27;3.70;;;18.70;99.90;;;;;;5051936;28;20459;-74
2023/06/20 02:07:59;;;;;;;4.57;4.07;;;18.80;99.90;;;;;;5052929;28;20521;-74
2023/06/20 02:10:27;;;;;;;4.93;4.40;;;18.80;99.90;;;;;;5051917;28;20463;-74
2023/06/20 02:12:56;;;;;;;4.57;3.67;;;18.80;99.90;;;;;;5052577;28;20939;-74
2023/06/20 02:15:25;;;;;;;4.27;3.60;;;18.80;99.90;;;;;;5051699;28;20455;-74
2023/06/20 02:17:52;;;;;;;4.37;4.00;;;18.70;99.90;;;;;;5052283;28;20963;-74
2023/06/20 02:20:18;;;;;;;3.70;3.40;;;18.80;99.90;;;;;;5052017;28;20921;-74
2023/06/20 02:22:47;;;;;;;5.00;4.30;;;18.80;99.90;;;;;;5051248;28;20456;-73
2023/06/20 02:25:20;;;;;;;4.57;4.13;;;18.80;99.90;;;;;;5051546;28;20487;-73
2023/06/20 02:27:48;;;;;;;4.17;3.63;;;18.80;99.90;;;;;;5051878;28;20862;-74
2023/06/20 02:30:19;;;;;;;4.10;3.30;;;18.80;99.90;;;;;;5052477;28;20463;-73
2023/06/20 02:32:46;;;;;;;4.13;3.73;;;18.80;99.90;;;;;;5072154;28;20477;-73
2023/06/20 02:35:15;;;;;;;3.80;3.50;;;18.80;99.90;;;;;;5071481;28;20512;-73
2023/06/20 02:37:43;;;;;;;5.27;4.20;;;18.80;99.90;;;;;;5071942;28;20462;-73
2023/06/20 02:40:12;;;;;;;4.50;3.70;;;18.70;99.90;;;;;;5072116;28;20465;-73
2023/06/20 02:42:38;;;;;;;4.70;4.00;;;18.80;99.90;;;;;;5071570;28;20459;-74
2023/06/20 02:45:06;;;;;;;3.57;3.27;;;18.80;99.90;;;;;;5071492;28;20474;-73
2023/06/20 02:47:42;;;;;;;7.43;3.80;;;18.80;99.90;;;;;;5071456;28;20481;-73
2023/06/20 02:50:15;;;;;;;4.37;3.90;;;18.80;99.90;;;;;;5072068;28;20454;-74
2023/06/20 02:52:48;;;;;;;4.10;3.60;;;18.80;99.90;;;;;;5071693;28;21040;-73
2023/06/20 02:55:25;;;;;;;3.60;3.30;;;18.80;99.90;;;;;;5071160;28;20461;-73
2023/06/20 02:57:55;;;;;;;4.10;3.70;;;18.70;99.90;;;;;;5071444;28;20462;-73
2023/06/20 03:00:24;;;;;;;5.20;3.90;;;18.70;99.90;;;;;;5071398;28;20491;-73
2023/06/20 03:02:59;;;;;;;4.73;4.10;;;18.70;99.90;;;;;;5071291;28;20466;-73
2023/06/20 03:05:29;;;;;;;4.57;4.13;;;18.70;99.90;;;;;;5070511;28;20489;-73
2023/06/20 03:07:57;;;;;;;4.40;4.00;;;18.60;99.90;;;;;;5071622;28;20469;-73
2023/06/20 03:10:25;;;;;;;4.30;4.00;;;18.60;99.90;;;;;;5070747;28;20454;-73
2023/06/20 03:12:52;;;;;;;5.10;3.70;;;18.60;99.90;;;;;;5071574;28;20458;-74
2023/06/20 03:15:18;;;;;;;5.17;4.67;;;18.60;99.90;;;;;;5070777;28;20462;-74
2023/06/20 03:17:45;;;;;;;4.50;3.73;;;18.60;99.90;;;;;;5071080;28;20467;-74
2023/06/20 03:20:13;;;;;;;4.40;3.70;;;18.60;99.90;;;;;;5071296;28;20467;-74
2023/06/20 03:22:40;;;;;;;5.13;4.30;;;18.60;99.90;;;;;;5070793;28;20484;-74
2023/06/20 03:25:08;;;;;;;4.27;3.87;;;18.60;99.90;;;;;;5070516;28;20490;-75
2023/06/20 03:27:34;;;;;;;5.37;3.80;;;18.60;99.90;;;;;;5070909;28;21180;-74
2023/06/20 03:30:03;;;;;;;4.57;4.03;;;18.50;99.90;;;;;;5071600;28;20482;-76
2023/06/20 03:32:30;;;;;;;4.00;3.70;;;18.50;99.90;;;;;;5058754;28;20460;-75
2023/06/20 03:34:57;;;;;;;6.93;5.13;;;18.50;99.90;;;;;;5052570;28;20451;-75
2023/06/20 03:37:25;;;;;;;4.47;4.07;;;18.50;99.90;;;;;;5053064;28;20472;-75
2023/06/20 03:39:52;;;;;;;4.50;3.93;;;18.40;99.90;;;;;;5052258;28;20873;-76
2023/06/20 03:42:18;;;;;;;4.00;3.60;;;18.40;99.90;;;;;;5050685;28;21044;-76
2023/06/20 03:44:45;;;;;;;4.10;3.73;;;18.40;99.90;;;;;;5050120;28;20566;-74
2023/06/20 03:47:12;;;;;;;5.20;3.70;;;18.40;99.90;;;;;;5050477;28;20463;-75
2023/06/20 03:49:39;;;;;;;5.10;4.50;;;18.40;99.90;;;;;;5049977;28;20494;-75
2023/06/20 03:52:06;;;;;;;4.70;4.17;;;18.40;99.90;;;;;;5050487;28;20464;-75
2023/06/20 03:54:37;;;;;;;4.57;3.83;;;18.40;99.90;;;;;;5049875;28;20456;-75
2023/06/20 03:57:04;;;;;;;4.07;3.67;;;18.40;99.90;;;;;;5051796;28;20474;-75
2023/06/20 03:59:31;;;;;;;4.30;3.87;;;18.40;99.90;;;;;;5051509;28;20479;-75
2023/06/20 04:01:57;;;;;;;4.00;3.70;;;18.40;99.90;;;;;;5050219;28;20470;-75
2023/06/20 04:04:24;;;;;;;4.33;4.00;;;18.40;99.90;;;;;;5058867;28;20482;-75
2023/06/20 04:06:51;;;;;;;4.30;3.57;;;18.30;99.90;;;;;;5070272;28;20980;-75
2023/06/20 04:09:18;;;;;;;4.07;3.67;;;18.30;99.90;;;;;;5071028;28;20610;-74
2023/06/20 04:11:46;;;;;;;4.97;4.47;;;18.30;99.90;;;;;;5070368;28;20458;-75
2023/06/20 04:14:13;;;;;;;4.20;3.80;;;18.20;99.90;;;;;;5070108;28;20462;-76
2023/06/20 04:16:40;;;;;;;4.00;3.50;;;18.20;99.90;;;;;;5069681;28;20986;-72
2023/06/20 04:19:07;;;;;;;3.77;3.27;;;18.20;99.90;;;;;;5059703;28;20855;-74
2023/06/20 04:21:33;;;;;;;4.20;3.80;;;18.20;99.90;;;;;;5049795;28;20463;-74
2023/06/20 04:24:00;;;;;;;4.37;3.80;;;18.20;99.90;;;;;;5050059;28;20466;-74
2023/06/20 04:26:29;;;;;;;4.20;3.80;;;18.20;99.90;;;;;;5049935;28;20836;-74
2023/06/20 04:28:57;;;;;;;3.70;3.40;;;18.20;99.90;;;;;;5069204;28;20481;-76
2023/06/20 04:31:24;;;;;;;3.83;3.43;;;18.20;99.90;;;;;;5055541;28;20469;-74
2023/06/20 04:33:51;;;;;;;7.60;3.90;;;18.20;99.90;;;;;;5046728;28;20547;-76
2023/06/20 04:36:17;;;;;;;3.80;2.80;;;18.30;99.90;;;;;;5046624;28;20876;-75
2023/06/20 04:38:44;;;;;;;3.60;3.20;;;18.30;99.90;;;;;;5047548;28;20490;-77
2023/06/20 04:41:12;;;;;;;4.67;3.77;;;18.30;99.90;;;;;;5047898;28;20459;-77
2023/06/20 04:43:38;;;;;;;3.90;3.47;;;18.30;99.90;;;;;;5047315;28;20470;-76
2023/06/20 04:46:07;;;;;;;4.03;3.63;;;18.30;99.90;;;;;;5050210;28;20475;-73
2023/06/20 04:48:35;;;;;;;3.50;3.13;;;18.30;99.90;;;;;;5053345;28;20481;-74
2023/06/20 04:51:02;;;;;;;5.17;3.60;;;18.40;99.90;;;;;;5062716;28;20910;-74
2023/06/20 04:53:29;;;;;;;4.07;3.37;;;18.40;99.90;;;;;;5071209;28;20465;-74
2023/06/20 04:55:58;;;;;;;6.17;4.00;;;18.40;99.90;;;;;;5065342;28;20965;-75
2023/06/20 04:58:25;;;;;;;4.87;3.93;;;18.50;99.90;;;;;;5074562;28;20489;-79
2023/06/20 05:00:52;;;;;;;3.80;3.40;;;18.50;99.90;;;;;;5074790;28;20515;-75
2023/06/20 05:03:20;;;;;;;4.17;3.53;;;18.60;99.90;;;;;;5074084;28;20546;-75
2023/06/20 05:05:47;;;;;;;3.90;3.50;;;18.60;99.90;;;;;;5069763;28;20487;-74
2023/06/20 05:08:14;;;;;;;3.87;3.47;;;18.70;99.90;;;;;;5053831;28;20483;-75
2023/06/20 05:10:40;;;;;;;3.43;3.13;;;18.70;99.90;;;;;;5053431;28;20955;-75
2023/06/20 05:13:07;;;;;;;3.50;3.17;;;18.70;99.90;;;;;;5053779;28;20459;-75
2023/06/20 05:15:34;;;;;;;3.93;3.63;;;18.70;99.90;;;;;;5052701;28;20459;-76
2023/06/20 05:18:01;;;;;;;4.00;3.40;;;18.70;99.90;;;;;;5059767;28;20466;-79
2023/06/20 05:20:29;;;;;;;3.60;3.30;;;18.70;99.90;;;;;;5058550;28;20465;-77
2023/06/20 05:22:55;;;;;;;5.13;3.40;;;18.70;99.90;;;;;;5075077;28;20549;-77
2023/06/20 05:25:22;;;;;;;4.60;3.07;;;18.80;99.90;;;;;;5066755;28;20482;-78
2023/06/20 05:27:49;;;;;;;4.03;3.17;;;18.80;99.90;;;;;;5054998;28;20467;-78
2023/06/20 05:30:16;;;;;;;3.83;3.43;;;18.90;99.90;;;;;;5069730;28;20458;-77
2023/06/20 05:32:42;;;;;;;3.93;3.40;;;19.00;99.90;;;;;;5074147;28;20826;-77
2023/06/20 05:35:09;;;;;;;4.03;3.30;;;19.00;99.90;;;;;;5059492;28;20463;-77
2023/06/20 05:37:37;;;;;;;5.40;3.57;;;19.00;99.90;;;;;;5053510;28;20462;-76
2023/06/20 05:40:05;;;;;;;4.83;3.50;;;19.10;99.90;;;;;;5068188;28;20849;-75
2023/06/20 05:42:32;;;;;;;4.77;3.90;;;19.10;99.90;;;;;;5056401;28;20550;-75
2023/06/20 05:44:59;;;;;;;5.10;3.73;;;19.10;99.90;;;;;;5052610;28;20998;-75
2023/06/20 05:47:26;;;;;;;3.50;3.20;;;19.20;99.90;;;;;;5053057;28;20853;-76
2023/06/20 05:49:57;;;;;;;3.70;3.20;;;19.20;99.90;;;;;;5054386;28;20490;-76
2023/06/20 05:52:24;;;;;;;3.50;3.20;;;19.30;99.90;;;;;;5053277;28;20461;-76
2023/06/20 05:54:53;;;;;;;3.47;3.10;;;19.30;99.90;;;;;;5055684;28;20468;-75
2023/06/20 05:57:20;;;;;;;3.47;3.17;;;19.40;99.90;;;;;;5056079;28;20539;-74
2023/06/20 05:59:47;;;;;;;4.07;3.67;;;19.50;99.90;;;;;;5055182;28;20479;-74
2023/06/20 06:02:15;;;;;;;4.03;3.23;;;19.50;99.90;;;;;;5072792;28;20451;-75
2023/06/20 06:04:43;;;;;;;4.40;3.60;;;19.50;99.90;;;;;;5057178;28;20487;-75
2023/06/20 06:07:10;;;;;;;4.97;3.70;;;19.60;99.90;;;;;;5072761;28;20459;-76
2023/06/20 06:09:37;;;;;;;4.50;3.40;;;19.70;99.90;;;;;;5062794;28;20479;-75
2023/06/20 06:12:06;;;;;;;4.80;3.87;;;19.70;99.90;;;;;;5065868;28;20489;-75
2023/06/20 06:14:33;;;;;;;4.67;3.43;;;19.70;99.90;;;;;;5071575;28;20455;-76
2023/06/20 06:17:00;;;;;;;3.93;3.50;;;19.80;99.90;;;;;;5072470;28;20550;-74
2023/06/20 06:19:27;;;;;;;3.83;3.50;;;19.80;99.90;;;;;;5055851;28;20477;-74
2023/06/20 06:21:53;;;;;;;3.97;3.30;;;19.90;99.90;;;;;;5055679;28;20839;-74
2023/06/20 06:24:21;;;;;;;5.33;4.37;;;20.00;99.90;;;;;;5071785;28;20462;-75
2023/06/20 06:26:48;;;;;;;4.47;3.63;;;20.00;99.90;;;;;;5061525;28;20495;-73
2023/06/20 06:29:17;;;;;;;4.00;3.60;;;20.00;99.90;;;;;;5055182;28;20507;-79
2023/06/20 06:31:44;;;;;;;3.97;3.27;;;20.00;99.90;;;;;;5056904;28;20877;-77
2023/06/20 06:34:16;;;;;;;6.50;5.83;;;20.00;99.90;;;;;;5057029;28;20958;-77
2023/06/20 06:36:48;;;;;;;6.13;3.87;;;20.00;99.90;;;;;;5056133;28;20539;-78
2023/06/20 06:39:17;;;;;;;4.93;4.13;;;20.10;99.90;;;;;;5047101;28;20483;-74
2023/06/20 06:41:44;;;;;;;5.10;3.77;;;20.10;99.90;;;;;;5062023;28;21031;-75
2023/06/20 06:44:11;;;;;;;3.87;3.50;;;20.20;99.90;;;;;;5072000;28;20466;-76
2023/06/20 06:46:39;;;;;;;4.27;3.40;;;20.20;99.90;;;;;;5071121;28;20480;-74
2023/06/20 06:49:06;;;;;;;4.27;3.87;;;20.40;99.90;;;;;;5071387;28;20498;-75
2023/06/20 06:51:32;;;;;;;4.80;4.30;;;20.50;99.90;;;;;;5063180;28;20467;-73
2023/06/20 06:53:59;;;;;;;5.03;3.77;;;20.60;99.90;;;;;;5051466;28;20467;-76
2023/06/20 06:56:26;;;;;;;4.30;3.60;;;20.70;99.90;;;;;;5050963;28;20456;-74
2023/06/20 06:58:56;;;;;;;4.60;4.10;;;20.70;99.90;;;;;;5051349;28;20477;-74
2023/06/20 07:01:23;;;;;;;4.53;4.07;;;20.70;99.90;;;;;;5051591;28;20959;-73
2023/06/20 07:03:51;;;;;;;4.70;4.23;;;20.80;99.90;;;;;;5070207;28;20459;-72
2023/06/20 07:06:17;;;;;;;5.10;3.80;;;20.90;99.90;;;;;;5070899;28;20483;-72
2023/06/20 07:08:44;;;;;;;5.33;3.60;;;20.90;99.90;;;;;;5070563;28;20601;-72
2023/06/20 07:11:11;;;;;;;4.00;3.60;;;21.00;99.90;;;;;;5057799;28;20926;-72
2023/06/20 07:13:38;;;;;;;3.73;3.33;;;21.10;99.90;;;;;;5068292;28;20466;-75
2023/06/20 07:16:05;;;;;;;5.03;3.77;;;21.20;99.90;;;;;;5070919;28;20819;-74
2023/06/20 07:18:32;;;;;;;5.50;4.13;;;21.40;99.90;;;;;;5071062;28;20479;-75
2023/06/20 07:21:00;;;;;;;6.17;4.37;;;21.50;99.90;;;;;;5051713;28;20470;-78
2023/06/20 07:23:27;;;;;;;4.40;4.00;;;21.60;99.90;;;;;;5051787;28;20542;-77
2023/06/20 07:25:53;;;;;;;4.93;4.43;;;21.70;99.90;;;;;;5050353;28;20476;-76
2023/06/20 07:28:20;;;;;;;4.60;4.10;;;21.90;99.90;;;;;;5050724;28;20484;-74
2023/06/20 07:30:47;;;;;;;4.57;3.80;;;22.00;99.90;;;;;;5052834;28;20465;-74
2023/06/20 07:33:13;;;;;;;4.10;3.43;;;22.10;99.90;;;;;;5071570;28;20460;-72
2023/06/20 07:35:40;;;;;;;3.93;3.53;;;22.20;99.90;;;;;;5070483;28;20456;-72
2023/06/20 07:38:08;;;;;;;3.90;3.60;;;22.30;99.90;;;;;;5067080;28;20485;-72
2023/06/20 07:40:35;;;;;;;3.90;3.57;;;22.40;99.90;;;;;;5050897;28;20473;-78
2023/06/20 07:43:01;;;;;;;4.37;3.97;;;22.50;99.90;;;;;;5063190;28;20478;-74
2023/06/20 07:45:28;;;;;;;5.87;4.00;;;22.50;99.90;;;;;;5070638;28;20493;-72
2023/06/20 07:47:55;;;;;;;3.97;3.67;;;22.50;99.90;;;;;;5062023;28;20470;-72
2023/06/20 07:50:22;;;;;;;4.63;4.23;;;22.60;99.90;;;;;;5070860;28;20470;-74
2023/06/20 07:52:48;;;;;;;6.10;3.90;;;22.60;99.90;;;;;;5060696;28;20472;-74
2023/06/20 07:55:17;;;;;;;4.10;3.70;;;22.70;99.90;;;;;;5059142;28;20504;-75
2023/06/20 07:57:43;;;;;;;5.43;4.13;;;22.70;99.90;;;;;;5068131;28;20708;-74
2023/06/20 08:00:11;;;;;;;5.80;4.53;;;22.80;99.90;;;;;;5070896;28;20474;-74
2023/06/20 08:02:41;;;;;;;4.63;4.23;;;22.80;99.90;;;;;;5061980;28;20835;-74
2023/06/20 08:05:08;;;;;;;5.03;4.07;;;22.90;99.90;;;;;;5070088;28;20488;-76
2023/06/20 08:07:36;;;;;;;4.77;3.40;;;23.00;99.90;;;;;;5063021;28;20460;-74
2023/06/20 08:10:04;;;;;;;4.60;3.90;;;23.00;99.90;;;;;;5050419;28;21056;-73
2023/06/20 08:12:32;;;;;;;6.60;4.00;;;23.00;99.90;;;;;;5050566;28;20491;-78
2023/06/20 08:14:58;;;;;;;4.77;3.77;;;23.10;99.90;;;;;;5050018;28;20465;-77
2023/06/20 08:17:25;;;;;;;5.10;4.40;;;23.20;99.90;;;;;;5050534;28;20977;-76
2023/06/20 08:19:52;;;;;;;5.40;3.80;;;23.30;99.90;;;;;;5049259;28;20490;-75
2023/06/20 08:22:19;;;;;;;5.00;4.00;;;23.30;99.90;;;;;;5058799;28;20462;-75
2023/06/20 08:24:45;;;;;;;4.90;4.10;;;23.20;99.90;;;;;;5050627;28;20467;-75
2023/06/20 08:27:12;;;;;;;4.50;3.93;;;23.20;99.90;;;;;;5069983;28;20563;-75
2023/06/20 08:29:40;;;;;;;4.40;4.00;;;23.30;99.90;;;;;;5061809;28;20998;-76
2023/06/20 08:32:07;;;;;;;5.73;4.70;;;23.50;99.90;;;;;;5066751;28;20467;-77
2023/06/20 08:34:34;;;;;;;5.60;4.23;;;23.60;99.90;;;;;;5066302;28;20467;-77
2023/06/20 08:37:02;;;;;;;6.80;4.70;;;23.70;99.90;;;;;;5063036;28;20455;-78
2023/06/20 08:39:29;;;;;;;4.70;4.30;;;23.80;99.90;;;;;;5072624;28;20511;-74
2023/06/20 08:41:56;;;;;;;4.37;3.97;;;23.90;99.90;;;;;;5069685;28;21008;-74
2023/06/20 08:44:23;;;;;;;4.70;3.80;;;24.00;99.90;;;;;;5069448;28;20955;-75
2023/06/20 08:46:56;;;;;;;6.10;4.83;;;24.10;99.90;;;;;;5069645;28;20485;-76
2023/06/20 08:49:23;;;;;;;4.40;3.60;;;24.20;99.90;;;;;;5069983;28;20486;-75
2023/06/20 08:51:52;;;;;;;6.40;4.40;;;24.30;99.90;;;;;;5069502;28;20467;-75
2023/06/20 08:54:21;;;;;;;6.90;4.37;;;24.40;99.90;;;;;;5064411;28;20469;-75
2023/06/20 08:56:49;;;;;;;5.80;3.90;;;24.60;99.90;;;;;;5049355;28;20456;-74
2023/06/20 08:59:16;;;;;;;5.40;4.20;;;24.60;99.90;;;;;;5050036;28;20479;-76
2023/06/20 09:01:43;;;;;;;5.33;3.70;;;24.60;99.90;;;;;;5059495;28;20469;-77
2023/06/20 09:04:11;;;;;;;7.37;4.93;;;24.70;99.90;;;;;;5054916;28;20460;-76
2023/06/20 09:06:38;;;;;;;5.33;4.20;;;24.90;99.90;;;;;;5053405;28;20498;-75
2023/06/20 09:09:05;;;;;;;4.20;3.80;;;25.00;99.90;;;;;;5049916;28;20489;-75
2023/06/20 09:11:36;;;;;;;4.10;3.80;;;25.10;99.90;;;;;;5049662;28;20882;-75
2023/06/20 09:14:03;;;;;;;4.30;3.90;;;25.20;99.90;;;;;;5052777;28;20463;-74
2023/06/20 09:16:30;;;;;;;6.60;4.33;;;25.40;99.90;;;;;;5063385;28;20458;-74
2023/06/20 09:18:59;;;;;;;5.20;4.70;;;25.40;99.90;;;;;;5060429;28;20551;-73
2023/06/20 09:21:28;;;;;;;4.10;3.80;;;25.50;99.90;;;;;;5063936;28;20536;-74
2023/06/20 09:24:02;;;;;;;4.90;4.50;;;25.50;99.90;;;;;;5051626;28;20462;-73
2023/06/20 09:26:30;;;;;;;4.30;3.90;;;25.70;99.90;;;;;;5069316;28;20567;-74
2023/06/20 09:29:07;;;;;;;4.83;4.00;;;25.80;99.90;;;;;;5069337;28;20482;-74
2023/06/20 09:31:41;;;;;;;4.90;3.97;;;25.80;99.90;;;;;;5071156;28;20533;-74
2023/06/20 09:34:11;;;;;;;5.50;4.40;;;25.80;99.90;;;;;;5045289;28;20467;-74
2023/06/20 09:36:40;;;;;;;4.37;3.90;;;26.00;99.90;;;;;;5068578;28;20458;-74
2023/06/20 09:39:17;;;;;;;4.10;3.70;;;25.90;99.90;;;;;;5051700;28;20490;-73
2023/06/20 09:41:45;;;;;;;4.43;4.03;;;26.10;99.90;;;;;;5051842;28;20564;-73
2023/06/20 09:44:12;;;;;;;4.67;4.27;;;26.20;99.90;;;;;;5052557;28;20466;-76
2023/06/20 09:46:39;;;;;;;4.30;3.90;;;26.30;99.90;;;;;;5051634;28;20475;-74
2023/06/20 09:49:06;;;;;;;4.30;3.57;;;26.40;99.90;;;;;;5052013;28;20488;-74
2023/06/20 09:51:34;;;;;;;4.80;3.80;;;26.50;99.90;;;;;;5052192;28;20601;-75
2023/06/20 09:54:05;;;;;;;4.50;4.10;;;26.70;99.90;;;;;;5051003;28;20463;-74
2023/06/20 09:56:39;;;;;;;4.00;3.67;;;26.80;99.90;;;;;;5050090;28;20485;-75
2023/06/20 09:59:09;;;;;;;5.13;4.10;;;26.90;99.90;;;;;;5051674;28;20501;-75
2023/06/20 10:01:38;;;;;;;4.00;3.60;;;26.90;99.90;;;;;;5051455;28;20464;-74
2023/06/20 10:04:05;;;;;;;4.93;4.37;;;27.00;99.90;;;;;;5048766;28;20479;-74
2023/06/20 10:06:32;;;;;;;4.23;3.83;;;27.10;99.90;;;;;;5047496;28;20477;-74
2023/06/20 10:09:00;;;;;;;4.67;4.10;;;27.10;99.90;;;;;;5049440;28;20484;-74
2023/06/20 10:11:29;;;;;;;4.73;4.07;;;27.20;99.90;;;;;;5050747;28;20511;-74
2023/06/20 10:13:55;;;;;;;4.27;3.97;;;27.30;99.90;;;;;;5050778;28;20843;-74
2023/06/20 10:16:27;;;;;;;6.60;4.80;;;27.40;99.90;;;;;;5049379;28;20470;-72
2023/06/20 10:18:54;;;;;;;3.80;3.50;;;27.50;99.90;;;;;;5050724;28;20536;-73
2023/06/20 10:21:54;;;;;;;4.43;4.03;;;27.60;99.90;;;;;;5050592;28;20856;-72
2023/06/20 10:24:21;;;;;;;4.33;3.93;;;27.80;99.90;;;;;;5050335;28;20463;-75
2023/06/20 10:26:53;;;;;;;4.10;3.80;;;27.80;99.90;;;;;;5050419;28;20478;-74
2023/06/20 10:29:21;;;;;;;5.03;3.93;;;27.90;99.90;;;;;;5049809;28;20484;-74
2023/06/20 10:32:04;;;;;;;4.53;3.67;;;28.00;99.90;;;;;;5050627;28;20540;-74
2023/06/20 10:34:35;;;;;;;4.37;3.90;;;28.10;99.90;;;;;;5068949;28;20466;-74
2023/06/20 10:37:16;;;;;;;6.47;4.33;;;28.10;99.90;;;;;;5059563;28;20884;-74
2023/06/20 10:39:52;;;;;;;4.33;3.93;;;28.20;99.90;;;;;;5049864;28;20513;-74
2023/06/20 10:42:37;;;;;;;4.10;3.70;;;28.40;99.90;;;;;;5062594;28;20474;-74
2023/06/20 10:45:17;;;;;;;3.90;3.47;;;28.40;99.90;;;;;;5058384;28;20469;-74
2023/06/20 10:47:44;;;;;;;5.70;4.10;;;28.50;99.90;;;;;;5058573;28;20478;-74
2023/06/20 10:50:12;;;;;;;3.93;3.53;;;28.60;99.90;;;;;;5062437;28;20458;-75
2023/06/20 10:52:39;;;;;;;4.27;3.27;;;28.60;99.90;;;;;;5055363;28;20885;-74
2023/06/20 10:55:08;;;;;;;4.30;3.90;;;28.80;99.70;;;;;;5060893;28;20988;-74
2023/06/20 10:57:36;;;;;;;6.90;4.13;;;28.90;99.90;;;;;;5064282;28;20962;-74
2023/06/20 11:00:13;;;;;;;3.67;3.37;;;29.00;99.90;;;;;;5050301;28;20491;-74
2023/06/20 11:02:39;;;;;;;6.30;3.83;;;29.00;99.90;;;;;;5054168;28;21036;-74
2023/06/20 11:05:09;;;;;;;4.20;3.80;;;29.00;97.60;;;;;;5070760;28;20469;-74
2023/06/20 11:07:35;;;;;;;4.10;3.50;;;29.10;99.30;;;;;;5063049;28;20566;-78
2023/06/20 11:10:13;;;;;;;4.67;4.27;;;29.20;96.30;;;;;;5054565;28;21145;-77
2023/06/20 11:12:42;;;;;;;4.17;3.70;;;29.20;96.00;;;;;;5056647;28;20463;-74
2023/06/20 11:15:21;;;;;;;3.73;3.40;;;29.20;98.20;;;;;;5069709;28;20964;-74
2023/06/20 11:17:48;;;;;;;4.00;3.60;;;29.20;97.30;;;;;;5062559;28;20467;-74
2023/06/20 11:20:16;;;;;;;4.87;3.97;;;29.20;99.80;;;;;;5054699;28;20461;-77
2023/06/20 11:22:43;;;;;;;4.23;3.80;;;29.40;99.10;;;;;;5054215;28;20460;-74
2023/06/20 11:25:10;;;;;;;4.40;3.60;;;29.50;98.80;;;;;;5066695;28;20460;-73
2023/06/20 11:27:37;;;;;;;5.50;3.83;;;29.50;99.00;;;;;;5050166;28;21049;-73
2023/06/20 11:30:06;;;;;;;4.20;3.80;;;29.60;98.70;;;;;;5049663;28;20511;-73
2023/06/20 11:32:33;;;;;;;5.87;3.80;;;29.70;99.90;;;;;;5050521;28;20455;-74
2023/06/20 11:35:00;;;;;;;4.80;3.57;;;29.80;99.10;;;;;;5049329;28;20806;-73
2023/06/20 11:37:27;;;;;;;4.17;3.77;;;29.90;97.10;;;;;;5050099;28;20845;-74
2023/06/20 11:39:53;;;;;;;4.00;3.60;;;29.90;98.10;;;;;;5051772;28;20542;-73
2023/06/20 11:42:21;;;;;;;4.20;3.80;;;29.90;97.70;;;;;;5049922;28;20459;-73
2023/06/20 11:44:47;;;;;;;4.70;3.97;;;29.90;98.90;;;;;;5049814;28;20463;-73
2023/06/20 11:47:16;;;;;;;6.50;3.97;;;30.00;99.40;;;;;;5050495;28;20840;-72
2023/06/20 11:49:42;;;;;;;3.83;3.50;;;30.00;98.70;;;;;;5050397;28;20491;-74
2023/06/20 11:52:10;;;;;;;5.80;4.10;;;30.10;99.30;;;;;;5049806;28;20467;-73
2023/06/20 11:54:50;;;;;;;4.23;3.83;;;30.00;96.80;;;;;;5049160;28;20467;-73
2023/06/20 11:57:27;;;;;;;4.63;4.03;;;30.00;98.40;;;;;;5042257;28;20463;-73
2023/06/20 11:59:54;;;;;;;4.40;4.00;;;30.00;96.30;;;;;;5049302;28;20490;-73
2023/06/20 12:02:25;;;;;;;4.30;3.90;;;30.00;95.70;;;;;;5050052;28;20510;-73
2023/06/20 12:04:59;;;;;;;4.40;4.03;;;29.90;97.30;;;;;;5058052;28;20836;-73
2023/06/20 12:07:26;;;;;;;6.10;4.47;;;30.00;97.10;;;;;;5056476;28;20483;-73
2023/06/20 12:09:53;;;;;;;4.23;3.67;;;30.10;98.10;;;;;;5049860;28;20507;-74
2023/06/20 12:12:20;;;;;;;5.07;3.80;;;30.30;98.20;;;;;;5062430;28;20469;-72
2023/06/20 12:14:52;;;;;;;7.33;4.60;;;30.50;98.30;;;;;;5062116;28;20459;-73
2023/06/20 12:17:19;;;;;;;4.60;4.07;;;30.50;97.50;;;;;;5054192;28;20461;-73
2023/06/20 12:19:53;;;;;;;4.77;4.37;;;30.70;98.40;;;;;;5070070;28;20494;-74
2023/06/20 12:22:20;;;;;;;4.10;3.60;;;30.80;96.50;;;;;;5070116;28;20947;-73
2023/06/20 12:24:46;;;;;;;5.53;4.30;;;30.80;98.30;;;;;;5069537;28;20459;-73
2023/06/20 12:27:13;;;;;;;4.70;4.30;;;30.90;98.90;;;;;;5069674;28;20489;-73
2023/06/20 12:29:40;;;;;;;5.07;3.83;;;31.00;96.60;;;;;;5070053;28;20831;-73
2023/06/20 12:32:08;;;;;;;5.20;4.30;;;31.00;95.00;;;;;;5069822;28;20459;-73
2023/06/20 12:34:35;;;;;;;5.17;4.03;;;31.00;94.80;;;;;;5063467;28;20529;-73
2023/06/20 12:37:03;;;;;;;6.17;4.50;;;31.00;94.30;;;;;;5049593;28;20455;-74
2023/06/20 12:39:29;;;;;;;4.70;4.30;;;30.80;93.60;;;;;;5049928;28;20889;-73
2023/06/20 12:41:56;;;;;;;4.43;4.03;;;30.80;95.90;;;;;;5049717;28;20886;-74
2023/06/20 12:44:23;;;;;;;4.33;3.97;;;30.70;94.50;;;;;;5062187;28;20459;-74
2023/06/20 12:46:49;;;;;;;4.23;3.80;;;30.80;95.00;;;;;;5069749;28;20486;-74
2023/06/20 12:49:16;;;;;;;4.77;4.13;;;30.90;96.90;;;;;;5069611;28;20490;-73
2023/06/20 12:51:43;;;;;;;4.67;4.27;;;31.10;95.00;;;;;;5069882;28;20466;-74
2023/06/20 12:54:11;;;;;;;6.70;4.20;;;31.10;93.90;;;;;;5069445;28;20463;-74